createdAt,value
2017-12-25T00:00:39.371Z,95365.98
2017-12-25T00:03:06.932Z,95371.86
2017-12-25T00:05:34.471Z,95376.67
2017-12-25T00:08:02.044Z,95387.91
2017-12-25T00:10:29.591Z,95385.91
2017-12-25T00:12:57.139Z,95395.33
2017-12-25T00:15:24.641Z,95397.56
2017-12-25T00:17:52.194Z,95401.80
2017-12-25T00:20:19.753Z,95401.03
2017-12-25T00:22:47.283Z,95399.70
2017-12-25T00:25:14.822Z,95400.97
2017-12-25T00:27:42.363Z,95407.72
2017-12-25T00:30:09.963Z,95404.36
2017-12-25T00:32:37.441Z,95407.45
2017-12-25T00:35:04.921Z,95404.53
2017-12-25T00:37:32.421Z,95407.56
2017-12-25T00:39:59.893Z,95403.70
2017-12-25T00:42:27.439Z,95407.09
2017-12-25T00:44:54.949Z,95406.17
2017-12-25T00:47:22.427Z,95403.08
2017-12-25T00:49:49.900Z,95409.17
2017-12-25T00:52:17.482Z,95410.95
2017-12-25T00:54:45.020Z,95412.44
2017-12-25T00:57:12.489Z,95405.57
2017-12-25T00:59:40.063Z,95405.63
2017-12-25T01:02:07.541Z,95406.85
2017-12-25T01:04:35.084Z,95399.16
2017-12-25T01:07:02.591Z,95406.34
2017-12-25T01:09:30.067Z,95405.52
2017-12-25T01:11:57.611Z,95400.88
2017-12-25T01:14:25.119Z,95404.89
2017-12-25T01:16:52.600Z,95397.23
2017-12-25T01:19:20.082Z,95399.84
2017-12-25T01:21:47.659Z,95393.40
2017-12-25T01:24:15.204Z,95393.28
2017-12-25T01:26:42.674Z,95386.78
2017-12-25T01:29:10.187Z,95385.91
2017-12-25T01:31:37.665Z,95388.11
2017-12-25T01:34:05.143Z,95380.95
2017-12-25T01:36:32.654Z,95383.95
2017-12-25T01:39:00.130Z,95377.66
2017-12-25T01:41:27.672Z,95377.24
2017-12-25T01:43:55.178Z,95377.16
2017-12-25T01:46:22.653Z,95375.82
2017-12-25T01:48:50.191Z,95371.89
2017-12-25T01:51:17.779Z,95372.44
2017-12-25T01:53:45.270Z,95374.27
2017-12-25T01:56:23.083Z,95371.81
2017-12-25T01:58:53.245Z,95373.95
2017-12-25T02:01:30.741Z,95377.75
2017-12-25T02:03:58.304Z,95384.48
2017-12-25T02:06:37.739Z,95388.64
2017-12-25T02:09:05.213Z,95390.31
2017-12-25T02:11:32.759Z,95389.16
2017-12-25T02:14:00.341Z,95398.63
2017-12-25T02:16:27.882Z,95386.39
2017-12-25T02:18:55.431Z,95387.69
2017-12-25T02:21:23.003Z,95383.45
2017-12-25T02:23:50.543Z,95389.41
2017-12-25T02:26:18.028Z,95393.22
2017-12-25T02:28:45.533Z,95390.58
2017-12-25T02:31:13.075Z,95390.52
2017-12-25T02:33:40.550Z,95376.09
2017-12-25T02:36:08.062Z,95377.06
2017-12-25T02:38:35.610Z,95381.81
2017-12-25T02:41:03.087Z,95379.31
2017-12-25T02:43:30.594Z,95374.69
2017-12-25T02:45:58.138Z,95372.52
2017-12-25T02:48:25.617Z,95377.09
2017-12-25T02:50:53.205Z,95371.86
2017-12-25T02:53:20.681Z,95374.89
2017-12-25T02:55:48.158Z,95383.42
2017-12-25T02:58:15.677Z,95391.14
2017-12-25T03:00:43.230Z,95380.92
2017-12-25T03:03:10.769Z,95379.31
2017-12-25T03:05:38.285Z,95382.67
2017-12-25T03:08:05.761Z,95382.50
2017-12-25T03:10:33.248Z,95383.72
2017-12-25T03:13:00.770Z,95384.99
2017-12-25T03:15:28.320Z,95386.33
2017-12-25T03:17:55.859Z,95380.45
2017-12-25T03:20:23.435Z,95384.81
2017-12-25T03:22:50.979Z,95386.12
2017-12-25T03:25:18.461Z,95385.28
2017-12-25T03:27:46.048Z,95386.51
2017-12-25T03:30:13.600Z,95393.66
2017-12-25T03:32:41.149Z,95394.82
2017-12-25T03:35:08.758Z,95399.93
2017-12-25T03:37:36.303Z,95403.02
2017-12-25T03:40:03.849Z,95395.38
2017-12-25T03:42:31.433Z,95402.27
2017-12-25T03:44:58.909Z,95399.33
2017-12-25T03:47:26.459Z,95397.61
2017-12-25T03:49:54.033Z,95397.58
2017-12-25T03:52:21.509Z,95400.97
2017-12-25T03:54:49.060Z,95401.73
2017-12-25T03:57:16.574Z,95399.58
2017-12-25T03:59:44.058Z,95393.30
2017-12-25T04:02:11.541Z,95403.16
2017-12-25T04:04:39.065Z,95401.17
2017-12-25T04:07:06.620Z,95394.40
2017-12-25T04:09:34.173Z,95398.23
2017-12-25T04:12:01.681Z,95391.75
2017-12-25T04:14:29.232Z,95404.94
2017-12-25T04:16:56.775Z,95400.22
2017-12-25T04:19:24.292Z,95409.52
2017-12-25T04:21:51.773Z,95401.08
2017-12-25T04:24:19.254Z,95399.89
2017-12-25T04:26:46.769Z,95409.30
2017-12-25T04:29:14.250Z,95411.41
2017-12-25T04:31:41.731Z,95400.81
2017-12-25T04:34:09.307Z,95411.30
2017-12-25T04:36:36.785Z,95413.52
2017-12-25T04:39:04.270Z,95407.78
2017-12-25T04:41:31.781Z,95403.66
2017-12-25T04:43:59.258Z,95412.29
2017-12-25T04:46:26.740Z,95413.33
2017-12-25T04:48:54.250Z,95421.22
2017-12-25T04:51:21.799Z,95415.59
2017-12-25T04:53:49.281Z,95412.95
2017-12-25T04:56:16.868Z,95425.57
2017-12-25T04:58:44.347Z,95422.19
2017-12-25T05:01:11.828Z,95421.41
2017-12-25T05:03:39.413Z,95420.67
2017-12-25T05:06:06.959Z,95426.98
2017-12-25T05:08:34.444Z,95424.38
2017-12-25T05:11:02.033Z,95426.84
2017-12-25T05:13:29.575Z,95429.31
2017-12-25T05:15:57.054Z,95425.06
2017-12-25T05:18:24.566Z,95425.57
2017-12-25T05:20:52.116Z,95422.77
2017-12-25T05:23:19.601Z,95421.97
2017-12-25T05:25:47.110Z,95413.06
2017-12-25T05:28:14.661Z,95417.70
2017-12-25T05:30:42.349Z,95424.91
2017-12-25T05:33:09.948Z,95425.23
2017-12-25T05:35:37.427Z,95424.27
2017-12-25T05:38:04.971Z,95421.73
2017-12-25T05:40:32.488Z,95420.58
2017-12-25T05:42:59.970Z,95412.50
2017-12-25T05:45:27.524Z,95423.99
2017-12-25T05:47:55.099Z,95421.83
2017-12-25T05:50:22.583Z,95417.91
2017-12-25T05:52:50.062Z,95428.89
2017-12-25T05:55:17.651Z,95434.48
2017-12-25T05:57:45.141Z,95419.22
2017-12-25T06:00:12.687Z,95416.72
2017-12-25T06:02:40.275Z,95424.83
2017-12-25T06:05:07.820Z,95429.93
2017-12-25T06:07:35.302Z,95433.73
2017-12-25T06:10:02.812Z,95429.48
2017-12-25T06:12:30.361Z,95424.83
2017-12-25T06:14:57.916Z,95425.22
2017-12-25T06:17:25.438Z,95428.09
2017-12-25T06:19:52.987Z,95427.14
2017-12-25T06:22:20.469Z,95429.59
2017-12-25T06:24:48.076Z,95435.77
2017-12-25T06:27:15.624Z,95436.81
2017-12-25T06:29:43.184Z,95438.19
2017-12-25T06:32:10.771Z,95438.64
2017-12-25T06:34:38.324Z,95435.25
2017-12-25T06:37:05.811Z,95434.90
2017-12-25T06:39:33.399Z,95435.97
2017-12-25T06:42:00.967Z,95429.13
2017-12-25T06:44:28.450Z,95423.45
2017-12-25T06:46:56.038Z,95429.39
2017-12-25T06:49:23.592Z,95432.23
2017-12-25T06:51:51.094Z,95427.62
2017-12-25T06:54:18.681Z,95419.38
2017-12-25T06:56:46.166Z,95422.42
2017-12-25T06:59:13.648Z,95425.05
2017-12-25T07:01:41.236Z,95431.45
2017-12-25T07:04:08.721Z,95424.86
2017-12-25T07:06:36.275Z,95437.75
2017-12-25T07:09:03.893Z,95437.94
2017-12-25T07:11:31.457Z,95442.55
2017-12-25T07:13:59.015Z,95451.63
2017-12-25T07:16:26.612Z,95455.12
2017-12-25T07:18:54.165Z,95454.29
2017-12-25T07:21:21.728Z,95460.24
2017-12-25T07:23:49.331Z,95453.88
2017-12-25T07:26:16.892Z,95452.69
2017-12-25T07:28:44.818Z,95460.53
2017-12-25T07:31:12.414Z,95457.27
2017-12-25T07:33:39.895Z,95462.92
2017-12-25T07:36:07.452Z,95460.88
2017-12-25T07:38:34.993Z,95469.03
2017-12-25T07:41:02.485Z,95466.13
2017-12-25T07:43:30.036Z,95473.80
2017-12-25T07:45:57.555Z,95477.12
2017-12-25T07:48:25.043Z,95473.89
2017-12-25T07:50:52.602Z,95479.14
2017-12-25T07:53:20.114Z,95489.12
2017-12-25T07:55:47.598Z,95484.22
2017-12-25T07:58:15.154Z,95483.09
2017-12-25T08:00:42.746Z,95476.13
2017-12-25T08:03:10.304Z,95485.41
2017-12-25T08:05:37.790Z,95472.81
2017-12-25T08:08:05.376Z,95470.66
2017-12-25T08:10:32.936Z,95472.87
2017-12-25T08:13:00.427Z,95473.19
2017-12-25T08:15:27.955Z,95468.17
2017-12-25T08:17:55.463Z,95470.54
2017-12-25T08:20:23.019Z,95472.97
2017-12-25T08:22:50.588Z,95465.14
2017-12-25T08:25:18.136Z,95470.98
2017-12-25T08:27:45.698Z,95472.46
2017-12-25T08:30:13.227Z,95474.06
2017-12-25T08:32:40.782Z,95477.64
2017-12-25T08:35:08.279Z,95481.64
2017-12-25T08:37:35.865Z,95474.51
2017-12-25T08:40:03.343Z,95481.23
2017-12-25T08:42:30.831Z,95478.12
2017-12-25T08:44:58.351Z,95475.56
2017-12-25T08:47:25.928Z,95479.88
2017-12-25T08:49:53.483Z,95477.07
2017-12-25T08:52:21.059Z,95477.27
2017-12-25T08:54:48.557Z,95475.25
2017-12-25T08:57:16.120Z,95485.11
2017-12-25T08:59:43.708Z,95480.66
2017-12-25T09:02:11.276Z,95484.69
2017-12-25T09:04:38.830Z,95486.41
2017-12-25T09:07:06.423Z,95480.23
2017-12-25T09:09:34.026Z,95483.50
2017-12-25T09:12:01.564Z,95483.47
2017-12-25T09:14:29.189Z,95477.01
2017-12-25T09:16:56.680Z,95483.79
2017-12-25T09:19:24.172Z,95477.39
2017-12-25T09:21:51.695Z,95478.19
2017-12-25T09:24:19.178Z,95479.09
2017-12-25T09:26:46.659Z,95471.73
2017-12-25T09:29:14.252Z,95479.34
2017-12-25T09:31:41.736Z,95473.77
2017-12-25T09:34:09.300Z,95471.95
2017-12-25T09:36:36.907Z,95466.38
2017-12-25T09:39:04.418Z,95468.20
2017-12-25T09:41:31.914Z,95461.84
2017-12-25T09:43:59.507Z,95458.48
2017-12-25T09:46:27.070Z,95457.58
2017-12-25T09:48:54.561Z,95453.67
2017-12-25T09:51:22.086Z,95448.91
2017-12-25T09:53:49.639Z,95448.14
2017-12-25T09:56:17.203Z,95439.21
2017-12-25T09:58:44.782Z,95439.62
2017-12-25T10:01:12.264Z,95445.45
2017-12-25T10:03:39.815Z,95435.98
2017-12-25T10:06:07.343Z,95440.10
2017-12-25T10:08:34.911Z,95428.61
2017-12-25T10:11:02.437Z,95433.48
2017-12-25T10:13:30.012Z,95434.38
2017-12-25T10:15:57.497Z,95432.68
2017-12-25T10:18:25.066Z,95430.44
2017-12-25T10:20:52.594Z,95421.89
2017-12-25T10:23:20.167Z,95426.05
2017-12-25T10:25:47.733Z,95417.95
2017-12-25T10:28:15.259Z,95420.52
2017-12-25T10:30:42.815Z,95412.03
2017-12-25T10:33:10.410Z,95411.52
2017-12-25T10:35:37.930Z,95406.91
2017-12-25T10:38:05.424Z,95407.68
2017-12-25T10:40:32.979Z,95408.00
2017-12-25T10:43:00.573Z,95403.74
2017-12-25T10:45:28.057Z,95404.26
2017-12-25T10:47:55.620Z,95398.44
2017-12-25T10:50:23.135Z,95400.97
2017-12-25T10:52:50.694Z,95390.47
2017-12-25T10:55:18.233Z,95392.66
2017-12-25T10:57:45.766Z,95385.87
2017-12-25T11:00:13.274Z,95389.84
2017-12-25T11:02:40.758Z,95380.23
2017-12-25T11:05:08.358Z,95374.63
2017-12-25T11:07:35.862Z,95371.20
2017-12-25T11:10:03.367Z,95370.89
2017-12-25T11:12:30.895Z,95366.22
2017-12-25T11:14:58.460Z,95364.97
2017-12-25T11:17:26.019Z,95351.08
2017-12-25T11:19:53.610Z,95361.86
2017-12-25T11:22:21.109Z,95350.54
2017-12-25T11:24:48.610Z,95351.22
2017-12-25T11:27:16.196Z,95353.19
2017-12-25T11:29:43.700Z,95348.96
2017-12-25T11:32:11.190Z,95346.88
2017-12-25T11:34:38.788Z,95341.34
2017-12-25T11:37:06.351Z,95338.79
2017-12-25T11:39:33.838Z,95339.23
2017-12-25T11:42:01.444Z,95338.31
2017-12-25T11:44:29.005Z,95342.98
2017-12-25T11:46:56.498Z,95339.39
2017-12-25T11:49:24.096Z,95339.11
2017-12-25T11:51:51.647Z,95331.45
2017-12-25T11:54:19.212Z,95328.88
2017-12-25T11:56:46.738Z,95334.55
2017-12-25T11:59:14.296Z,95330.98
2017-12-25T12:01:41.913Z,95335.09
2017-12-25T12:04:09.521Z,95335.96
2017-12-25T12:06:37.015Z,95337.45
2017-12-25T12:09:04.623Z,95330.25
2017-12-25T12:11:32.146Z,95325.92
2017-12-25T12:13:59.630Z,95317.77
2017-12-25T12:16:27.180Z,95312.50
2017-12-25T12:18:54.775Z,95317.56
2017-12-25T12:21:22.261Z,95308.45
2017-12-25T12:23:49.817Z,95303.38
2017-12-25T12:26:17.467Z,95308.55
2017-12-25T12:28:44.949Z,95301.33
2017-12-25T12:31:12.434Z,95300.33
2017-12-25T12:33:39.958Z,95308.79
2017-12-25T12:36:07.528Z,95310.52
2017-12-25T12:38:35.091Z,95306.66
2017-12-25T12:41:02.688Z,95307.86
2017-12-25T12:43:30.256Z,95305.25
2017-12-25T12:45:57.746Z,95308.03
2017-12-25T12:48:25.293Z,95303.53
2017-12-25T12:50:52.786Z,95306.95
2017-12-25T12:53:20.270Z,95301.97
2017-12-25T12:55:47.854Z,95304.63
2017-12-25T12:58:15.371Z,95307.76
2017-12-25T13:00:42.881Z,95304.20
2017-12-25T13:03:10.445Z,95303.86
2017-12-25T13:05:37.942Z,95306.13
2017-12-25T13:08:05.447Z,95306.55
2017-12-25T13:10:33.035Z,95304.88
2017-12-25T13:13:00.527Z,95302.33
2017-12-25T13:15:28.025Z,95308.53
2017-12-25T13:17:55.562Z,95303.99
2017-12-25T13:20:23.135Z,95309.94
2017-12-25T13:22:50.711Z,95308.20
2017-12-25T13:25:18.233Z,95307.44
2017-12-25T13:27:46.734Z,95304.34
2017-12-25T13:30:14.320Z,95303.98
2017-12-25T13:32:41.843Z,95297.63
2017-12-25T13:35:09.420Z,95300.76
2017-12-25T13:37:36.935Z,95293.19
2017-12-25T13:40:04.462Z,95293.70
2017-12-25T13:42:31.959Z,95290.34
2017-12-25T13:44:59.533Z,95292.42
2017-12-25T13:47:27.261Z,95283.72
2017-12-25T13:49:54.829Z,95284.36
2017-12-25T13:52:22.334Z,95291.14
2017-12-25T13:54:49.875Z,95282.44
2017-12-25T13:57:17.386Z,95283.87
2017-12-25T13:59:44.978Z,95285.55
2017-12-25T14:02:12.590Z,95286.44
2017-12-25T14:04:40.462Z,95283.81
2017-12-25T14:07:07.994Z,95289.31
2017-12-25T14:09:35.599Z,95285.16
2017-12-25T14:12:03.086Z,95288.70
2017-12-25T14:14:30.656Z,95291.72
2017-12-25T14:16:58.248Z,95292.06
2017-12-25T14:19:25.817Z,95283.18
2017-12-25T14:21:53.383Z,95294.27
2017-12-25T14:24:20.972Z,95291.81
2017-12-25T14:26:48.540Z,95290.56
2017-12-25T14:29:16.038Z,95280.34
2017-12-25T14:31:43.554Z,95280.20
2017-12-25T14:34:11.111Z,95284.94
2017-12-25T14:36:38.601Z,95286.86
2017-12-25T14:39:06.188Z,95281.53
2017-12-25T14:41:33.754Z,95283.96
2017-12-25T14:44:01.246Z,95283.25
2017-12-25T14:46:28.782Z,95278.25
2017-12-25T14:48:56.319Z,95282.32
2017-12-25T14:51:23.810Z,95281.09
2017-12-25T14:53:51.322Z,95275.92
2017-12-25T14:56:18.875Z,95273.08
2017-12-25T14:58:46.369Z,95271.70
2017-12-25T15:01:13.964Z,95272.41
2017-12-25T15:03:41.455Z,95281.72
2017-12-25T15:06:09.039Z,95274.66
2017-12-25T15:08:36.558Z,95278.77
2017-12-25T15:11:04.131Z,95277.02
2017-12-25T15:13:31.687Z,95283.36
2017-12-25T15:15:59.277Z,95286.39
2017-12-25T15:18:26.766Z,95283.56
2017-12-25T15:20:54.323Z,95283.41
2017-12-25T15:23:21.846Z,95286.14
2017-12-25T15:25:49.334Z,95278.23
2017-12-25T15:28:16.831Z,95276.35
2017-12-25T15:30:44.370Z,95274.48
2017-12-25T15:33:11.873Z,95270.46
2017-12-25T15:35:39.434Z,95265.42
2017-12-25T15:38:07.023Z,95271.79
2017-12-25T15:40:34.580Z,95258.44
2017-12-25T15:43:02.092Z,95267.33
2017-12-25T15:45:29.625Z,95271.67
2017-12-25T15:47:57.194Z,95272.83
2017-12-25T15:50:24.749Z,95274.01
2017-12-25T15:52:52.274Z,95266.76
2017-12-25T15:55:19.761Z,95273.53
2017-12-25T15:57:47.250Z,95272.58
2017-12-25T16:00:14.839Z,95279.34
2017-12-25T16:02:42.388Z,95277.59
2017-12-25T16:05:09.886Z,95282.13
2017-12-25T16:07:37.406Z,95286.77
2017-12-25T16:10:04.964Z,95279.83
2017-12-25T16:12:32.451Z,95284.88
2017-12-25T16:14:59.982Z,95286.16
2017-12-25T16:17:27.466Z,95282.00
2017-12-25T16:19:55.020Z,95287.62
2017-12-25T16:22:22.611Z,95290.47
2017-12-25T16:24:50.188Z,95288.78
2017-12-25T16:27:17.696Z,95296.45
2017-12-25T16:29:45.218Z,95292.87
2017-12-25T16:32:12.783Z,95297.19
2017-12-25T16:34:40.311Z,95308.43
2017-12-25T16:37:07.826Z,95302.66
2017-12-25T16:39:35.318Z,95295.89
2017-12-25T16:42:02.867Z,95298.39
2017-12-25T16:44:30.571Z,95308.00
2017-12-25T16:46:58.144Z,95312.56
2017-12-25T16:49:25.651Z,95308.97
2017-12-25T16:51:53.255Z,95306.03
2017-12-25T16:54:20.819Z,95303.20
2017-12-25T16:56:48.380Z,95307.70
2017-12-25T16:59:15.889Z,95310.88
2017-12-25T17:01:43.451Z,95306.63
2017-12-25T17:04:10.938Z,95307.23
2017-12-25T17:06:38.469Z,95314.78
2017-12-25T17:09:05.964Z,95310.70
2017-12-25T17:11:33.529Z,95317.95
2017-12-25T17:14:01.063Z,95319.63
2017-12-25T17:16:28.546Z,95319.25
2017-12-25T17:18:56.113Z,95313.19
2017-12-25T17:21:23.934Z,95314.30
2017-12-25T17:23:51.523Z,95317.12
2017-12-25T17:26:19.078Z,95319.86
2017-12-25T17:28:46.674Z,95321.23
2017-12-25T17:31:14.241Z,95333.83
2017-12-25T17:33:41.732Z,95336.81
2017-12-25T17:36:09.261Z,95332.38
2017-12-25T17:38:36.818Z,95333.47
2017-12-25T17:41:04.334Z,95335.84
2017-12-25T17:43:31.863Z,95338.21
2017-12-25T17:45:59.415Z,95334.53
2017-12-25T17:48:26.910Z,95334.77
2017-12-25T17:50:54.496Z,95334.17
2017-12-25T17:53:21.981Z,95338.55
2017-12-25T17:55:49.467Z,95332.48
2017-12-25T17:58:16.994Z,95338.01
2017-12-25T18:00:44.502Z,95332.12
2017-12-25T18:03:12.002Z,95333.84
2017-12-25T18:05:39.595Z,95332.09
2017-12-25T18:08:07.081Z,95327.55
2017-12-25T18:10:34.570Z,95335.73
2017-12-25T18:13:02.248Z,95335.38
2017-12-25T18:15:29.748Z,95329.47
2017-12-25T18:17:57.251Z,95332.98
2017-12-25T18:20:24.865Z,95328.30
2017-12-25T18:22:52.357Z,95322.28
2017-12-25T18:25:19.912Z,95324.97
2017-12-25T18:27:47.578Z,95330.42
2017-12-25T18:30:15.152Z,95330.95
2017-12-25T18:32:42.643Z,95333.09
2017-12-25T18:35:10.174Z,95335.80
2017-12-25T18:37:37.735Z,95327.34
2017-12-25T18:40:05.319Z,95324.94
2017-12-25T18:42:32.834Z,95327.94
2017-12-25T18:45:00.392Z,95334.75
2017-12-25T18:47:27.948Z,95332.58
2017-12-25T18:49:55.528Z,95326.66
2017-12-25T18:52:23.091Z,95323.22
2017-12-25T18:54:50.680Z,95320.19
2017-12-25T18:57:18.239Z,95321.87
2017-12-25T18:59:45.737Z,95321.61
2017-12-25T19:02:13.336Z,95316.24
2017-12-25T19:04:40.876Z,95321.38
2017-12-25T19:07:08.451Z,95319.66
2017-12-25T19:09:35.982Z,95320.17
2017-12-25T19:12:03.551Z,95318.92
2017-12-25T19:14:31.149Z,95322.84
2017-12-25T19:16:58.686Z,95325.52
2017-12-25T19:19:26.267Z,95331.40
2017-12-25T19:21:53.758Z,95330.66
2017-12-25T19:24:22.189Z,95322.34
2017-12-25T19:26:49.757Z,95323.23
2017-12-25T19:29:17.262Z,95318.96
2017-12-25T19:31:44.909Z,95316.98
2017-12-25T19:34:12.402Z,95313.08
2017-12-25T19:36:39.987Z,95316.44
2017-12-25T19:39:07.609Z,95315.13
2017-12-25T19:41:35.171Z,95318.07
2017-12-25T19:44:02.666Z,95319.70
2017-12-25T19:46:30.190Z,95317.52
2017-12-25T19:48:57.743Z,95318.83
2017-12-25T19:51:25.303Z,95318.72
2017-12-25T19:53:52.888Z,95312.96
2017-12-25T19:56:20.455Z,95312.25
2017-12-25T19:58:48.011Z,95312.06
2017-12-25T20:01:15.600Z,95309.93
2017-12-25T20:03:43.094Z,95301.61
2017-12-25T20:06:10.656Z,95304.42
2017-12-25T20:08:38.178Z,95311.02
2017-12-25T20:11:05.678Z,95310.64
2017-12-25T20:13:33.241Z,95311.47
2017-12-25T20:16:00.757Z,95308.41
2017-12-25T20:18:28.261Z,95307.42
2017-12-25T20:20:55.742Z,95311.84
2017-12-25T20:23:23.331Z,95318.80
2017-12-25T20:25:50.818Z,95319.55
2017-12-25T20:28:18.333Z,95321.06
2017-12-25T20:30:45.920Z,95318.80
2017-12-25T20:33:13.471Z,95315.23
2017-12-25T20:35:40.963Z,95324.55
2017-12-25T20:38:08.549Z,95328.65
2017-12-25T20:40:36.038Z,95321.55
2017-12-25T20:43:03.592Z,95317.23
2017-12-25T20:45:31.111Z,95323.32
2017-12-25T20:47:58.676Z,95326.27
2017-12-25T20:50:26.240Z,95320.20
2017-12-25T20:52:53.773Z,95322.22
2017-12-25T20:55:21.331Z,95321.98
2017-12-25T20:57:48.889Z,95314.67
2017-12-25T21:00:16.502Z,95310.52
2017-12-25T21:02:43.989Z,95307.55
2017-12-25T21:05:11.539Z,95309.12
2017-12-25T21:07:39.058Z,95306.05
2017-12-25T21:10:06.545Z,95310.59
2017-12-25T21:12:34.098Z,95319.34
2017-12-25T21:15:01.638Z,95314.05
2017-12-25T21:17:29.219Z,95308.33
2017-12-25T21:19:56.774Z,95305.57
2017-12-25T21:22:24.372Z,95307.83
2017-12-25T21:24:51.950Z,95312.23
2017-12-25T21:27:19.440Z,95311.49
2017-12-25T21:29:46.954Z,95304.81
2017-12-25T21:32:14.503Z,95301.88
2017-12-25T21:34:41.986Z,95306.89
2017-12-25T21:37:09.566Z,95306.32
2017-12-25T21:39:37.115Z,95304.30
2017-12-25T21:42:04.672Z,95306.69
2017-12-25T21:44:32.263Z,95310.42
2017-12-25T21:46:59.819Z,95307.34
2017-12-25T21:49:27.339Z,95302.02
2017-12-25T21:51:54.930Z,95299.28
2017-12-25T21:54:22.414Z,95300.31
2017-12-25T21:56:49.899Z,95300.08
2017-12-25T21:59:17.488Z,95298.92
2017-12-25T22:01:45.035Z,95299.11
2017-12-25T22:04:12.583Z,95303.80
2017-12-25T22:06:40.112Z,95303.03
2017-12-25T22:09:07.663Z,95294.09
2017-12-25T22:11:35.158Z,95299.97
2017-12-25T22:14:02.685Z,95301.57
2017-12-25T22:16:30.231Z,95300.14
2017-12-25T22:18:57.721Z,95304.42
2017-12-25T22:21:25.245Z,95301.54
2017-12-25T22:23:52.732Z,95305.94
2017-12-25T22:26:20.288Z,95302.49
2017-12-25T22:28:47.868Z,95297.29
2017-12-25T22:31:15.357Z,95299.40
2017-12-25T22:33:42.842Z,95302.63
2017-12-25T22:36:10.354Z,95304.27
2017-12-25T22:38:37.903Z,95303.11
2017-12-25T22:41:05.394Z,95297.41
2017-12-25T22:43:32.975Z,95295.75
2017-12-25T22:46:00.458Z,95294.15
2017-12-25T22:48:27.945Z,95289.58
2017-12-25T22:50:55.466Z,95285.75
2017-12-25T22:53:22.945Z,95290.92
2017-12-25T22:55:50.435Z,95293.80
2017-12-25T22:58:18.027Z,95292.05
2017-12-25T23:00:45.580Z,95290.15
2017-12-25T23:03:13.180Z,95288.55
2017-12-25T23:05:40.698Z,95283.14
2017-12-25T23:08:08.188Z,95281.92
2017-12-25T23:10:35.669Z,95278.48
2017-12-25T23:13:03.186Z,95282.25
2017-12-25T23:15:30.676Z,95280.56
2017-12-25T23:17:58.229Z,95278.72
2017-12-25T23:20:25.771Z,95273.22
2017-12-25T23:22:53.323Z,95270.85
2017-12-25T23:25:20.809Z,95265.42
2017-12-25T23:27:48.388Z,95264.17
2017-12-25T23:30:15.875Z,95256.64
2017-12-25T23:32:43.358Z,95257.88
2017-12-25T23:35:10.939Z,95256.64
2017-12-25T23:37:38.429Z,95258.71
2017-12-25T23:40:05.914Z,95248.88
2017-12-25T23:42:33.435Z,95255.12
2017-12-25T23:45:00.991Z,95258.30
2017-12-25T23:47:28.546Z,95258.42
2017-12-25T23:49:56.104Z,95259.41
2017-12-25T23:52:23.594Z,95260.67
2017-12-25T23:54:51.118Z,95261.56
2017-12-25T23:57:18.618Z,95267.16
2017-12-25T23:59:46.101Z,95263.23
